createdAt,value
2022-10-12T00:01:09.064Z,5.10
2022-10-12T00:03:39.511Z,8.25
2022-10-12T00:06:09.721Z,9.40
2022-10-12T00:08:40.770Z,10.27
2022-10-12T00:11:12.590Z,10.85
2022-10-12T00:13:40.625Z,15.90
2022-10-12T00:16:10.960Z,11.10
2022-10-12T00:18:39.520Z,6.65
2022-10-12T00:21:09.457Z,11.35
2022-10-12T00:23:39.669Z,12.13
2022-10-12T00:26:09.694Z,7.78
2022-10-12T00:28:37.981Z,11.63
2022-10-12T00:31:09.213Z,9.95
2022-10-12T00:33:38.564Z,9.32
2022-10-12T00:36:15.195Z,15.95
2022-10-12T00:38:45.093Z,7.65
2022-10-12T00:41:13.777Z,7.57
2022-10-12T00:43:44.547Z,8.35
2022-10-12T00:46:18.598Z,7.43
2022-10-12T00:48:48.986Z,11.55
2022-10-12T00:51:19.651Z,8.75
2022-10-12T00:53:53.856Z,7.47
2022-10-12T00:56:26.404Z,11.13
2022-10-12T00:58:55.980Z,3.50
2022-10-12T01:01:25.242Z,10.10
2022-10-12T01:03:53.362Z,6.90
2022-10-12T01:06:21.445Z,7.35
2022-10-12T01:08:50.616Z,10.88
2022-10-12T01:11:18.433Z,12.30
2022-10-12T01:13:46.160Z,11.95
2022-10-12T01:16:21.335Z,20.50
2022-10-12T01:18:54.531Z,15.02
2022-10-12T01:21:23.919Z,5.57
2022-10-12T01:24:30.558Z,12.77
2022-10-12T01:27:40.279Z,6.35
2022-10-12T01:30:19.928Z,11.63
2022-10-12T01:33:05.718Z,10.02
2022-10-12T01:35:41.206Z,18.77
2022-10-12T01:38:19.888Z,10.38
2022-10-12T01:40:56.602Z,12.38
2022-10-12T01:43:34.085Z,14.90
2022-10-12T01:46:09.372Z,9.90
2022-10-12T01:48:37.323Z,14.35
2022-10-12T01:51:06.126Z,16.00
2022-10-12T01:53:42.548Z,9.50
2022-10-12T01:56:18.102Z,11.15
2022-10-12T01:58:58.810Z,8.70
2022-10-12T02:01:34.578Z,17.88
2022-10-12T02:04:11.218Z,13.98
2022-10-12T02:06:44.757Z,10.25
2022-10-12T02:09:19.867Z,12.07
2022-10-12T02:11:52.105Z,9.52
2022-10-12T02:14:24.749Z,13.88
2022-10-12T02:16:57.987Z,12.75
2022-10-12T02:19:28.892Z,11.68
2022-10-12T02:22:01.956Z,11.77
2022-10-12T02:24:32.711Z,14.45
2022-10-12T02:27:02.042Z,9.55
2022-10-12T02:29:34.661Z,15.68
2022-10-12T02:32:10.044Z,6.47
2022-10-12T02:34:44.722Z,15.43
2022-10-12T02:37:21.197Z,7.53
2022-10-12T02:39:54.465Z,11.35
2022-10-12T02:42:28.175Z,13.25
2022-10-12T02:44:59.771Z,8.65
2022-10-12T02:47:32.858Z,10.10
2022-10-12T02:50:02.132Z,11.98
2022-10-12T02:52:32.089Z,7.85
2022-10-12T02:55:00.143Z,6.20
2022-10-12T02:57:28.396Z,15.00
2022-10-12T02:59:56.360Z,11.02
2022-10-12T03:02:24.300Z,9.30
2022-10-12T03:04:53.723Z,11.93
2022-10-12T03:07:21.653Z,8.95
2022-10-12T03:09:49.536Z,8.93
2022-10-12T03:12:17.351Z,8.55
2022-10-12T03:14:45.342Z,9.18
2022-10-12T03:17:13.661Z,13.02
2022-10-12T03:19:41.654Z,11.23
2022-10-12T03:22:10.976Z,11.00
2022-10-12T03:24:39.016Z,6.28
2022-10-12T03:27:07.033Z,13.70
2022-10-12T03:29:36.621Z,9.30
2022-10-12T03:32:04.723Z,7.93
2022-10-12T03:34:32.888Z,6.20
2022-10-12T03:37:01.359Z,11.70
2022-10-12T03:39:30.683Z,10.35
2022-10-12T03:41:58.858Z,11.40
2022-10-12T03:44:26.969Z,9.05
2022-10-12T03:46:55.015Z,12.15
2022-10-12T03:49:23.142Z,12.77
2022-10-12T03:51:51.248Z,9.73
2022-10-12T03:54:19.168Z,13.00
2022-10-12T03:56:48.775Z,9.15
2022-10-12T03:59:16.851Z,13.18
2022-10-12T04:01:44.983Z,8.18
2022-10-12T04:04:13.035Z,6.18
2022-10-12T04:06:41.138Z,11.65
2022-10-12T04:09:09.484Z,15.35
2022-10-12T04:11:37.622Z,11.00
2022-10-12T04:14:07.130Z,7.60
2022-10-12T04:16:35.154Z,14.30
2022-10-12T04:19:03.643Z,13.15
2022-10-12T04:21:32.512Z,8.70
2022-10-12T04:24:00.593Z,10.98
2022-10-12T04:26:28.636Z,6.78
2022-10-12T04:28:56.752Z,9.02
2022-10-12T04:31:26.208Z,6.95
2022-10-12T04:33:56.992Z,7.70
2022-10-12T04:36:25.486Z,8.18
2022-10-12T04:38:58.466Z,10.95
2022-10-12T04:41:29.428Z,10.50
2022-10-12T04:43:57.315Z,19.88
2022-10-12T04:46:26.927Z,13.75
2022-10-12T04:48:54.914Z,9.32
2022-10-12T04:51:22.948Z,8.27
2022-10-12T04:53:51.013Z,10.32
2022-10-12T04:56:19.886Z,9.73
2022-10-12T04:58:48.032Z,13.15
2022-10-12T05:01:16.131Z,8.70
2022-10-12T05:03:45.564Z,14.80
2022-10-12T05:06:13.728Z,10.15
2022-10-12T05:08:41.764Z,14.38
2022-10-12T05:11:09.741Z,12.68
2022-10-12T05:13:37.612Z,7.95
2022-10-12T05:16:05.616Z,13.90
2022-10-12T05:18:33.477Z,11.73
2022-10-12T05:21:02.629Z,9.35
2022-10-12T05:23:30.521Z,7.75
2022-10-12T05:25:58.355Z,10.65
2022-10-12T05:28:26.306Z,11.98
2022-10-12T05:30:54.891Z,11.57
2022-10-12T05:33:22.959Z,9.75
2022-10-12T05:35:56.240Z,10.95
2022-10-12T05:38:25.987Z,7.05
2022-10-12T05:40:57.845Z,10.68
2022-10-12T05:43:28.710Z,17.05
2022-10-12T05:45:57.027Z,10.65
2022-10-12T05:48:27.835Z,8.40
2022-10-12T05:50:56.144Z,12.40
2022-10-12T05:53:25.808Z,10.20
2022-10-12T05:55:54.973Z,11.73
2022-10-12T05:58:23.389Z,10.05
2022-10-12T06:00:51.326Z,12.88
2022-10-12T06:03:21.952Z,16.85
2022-10-12T06:05:53.287Z,8.07
2022-10-12T06:08:22.587Z,10.35
2022-10-12T06:10:52.745Z,7.45
2022-10-12T06:13:21.048Z,12.13
2022-10-12T06:15:49.914Z,10.68
2022-10-12T06:18:18.927Z,9.35
2022-10-12T06:20:49.007Z,8.35
2022-10-12T06:23:17.356Z,8.30
2022-10-12T06:25:46.952Z,9.85
2022-10-12T06:28:17.233Z,10.75
2022-10-12T06:30:45.237Z,12.23
2022-10-12T06:33:13.374Z,9.95
2022-10-12T06:35:41.850Z,9.45
2022-10-12T06:38:09.574Z,10.57
2022-10-12T06:40:37.516Z,10.43
2022-10-12T06:43:05.328Z,12.23
2022-10-12T06:45:34.588Z,10.20
2022-10-12T06:48:02.653Z,7.13
2022-10-12T06:50:31.029Z,11.20
2022-10-12T06:52:59.063Z,10.50
2022-10-12T06:55:26.891Z,10.45
2022-10-12T06:57:56.494Z,8.27
2022-10-12T07:00:24.499Z,6.60
2022-10-12T07:02:54.125Z,5.82
2022-10-12T07:05:22.433Z,10.10
2022-10-12T07:07:50.114Z,7.18
2022-10-12T07:10:18.064Z,5.68
2022-10-12T07:12:45.926Z,15.70
2022-10-12T07:15:13.819Z,9.65
2022-10-12T07:17:41.676Z,5.78
2022-10-12T07:20:11.343Z,8.45
2022-10-12T07:22:39.246Z,6.70
2022-10-12T07:25:08.954Z,11.10
2022-10-12T07:27:37.515Z,10.25
2022-10-12T07:30:06.724Z,9.65
2022-10-12T07:32:36.005Z,12.02
2022-10-12T07:35:03.890Z,8.10
2022-10-12T07:37:33.012Z,9.50
2022-10-12T07:40:00.941Z,11.98
2022-10-12T07:42:28.694Z,8.60
2022-10-12T07:44:56.655Z,7.53
2022-10-12T07:47:24.421Z,5.05
2022-10-12T07:49:52.614Z,12.15
2022-10-12T07:52:20.419Z,7.88
2022-10-12T07:54:49.941Z,11.15
2022-10-12T07:57:17.926Z,6.35
2022-10-12T07:59:46.296Z,5.95
2022-10-12T08:02:14.320Z,6.55
2022-10-12T08:04:42.457Z,9.05
2022-10-12T08:07:10.578Z,7.45
2022-10-12T08:09:38.816Z,7.30
2022-10-12T08:12:11.118Z,11.07
2022-10-12T08:14:39.956Z,5.32
2022-10-12T08:17:07.805Z,6.80
2022-10-12T08:19:37.400Z,6.70
2022-10-12T08:22:06.146Z,7.95
2022-10-12T08:24:36.126Z,7.65
2022-10-12T08:27:04.098Z,5.60
2022-10-12T08:29:33.768Z,5.70
2022-10-12T08:32:02.315Z,5.88
2022-10-12T08:34:30.858Z,5.65
2022-10-12T08:36:59.724Z,4.35
2022-10-12T08:39:27.638Z,6.22
2022-10-12T08:42:11.300Z,6.45
2022-10-12T08:47:41.587Z,6.38
2022-10-12T08:50:20.766Z,8.70
2022-10-12T08:52:57.109Z,7.10
2022-10-12T08:55:35.457Z,10.52
2022-10-12T08:58:04.303Z,8.23
2022-10-12T09:00:36.088Z,9.63
2022-10-12T09:03:17.146Z,6.07
2022-10-12T09:05:51.496Z,7.38
2022-10-12T09:08:31.874Z,7.50
2022-10-12T09:11:15.338Z,6.57
2022-10-12T09:13:53.559Z,8.00
2022-10-12T09:16:25.314Z,8.30
2022-10-12T09:18:59.174Z,8.05
2022-10-12T09:21:29.818Z,6.05
2022-10-12T09:23:58.864Z,6.95
2022-10-12T09:26:34.287Z,7.97
2022-10-12T09:29:04.072Z,7.82
2022-10-12T09:31:44.403Z,6.00
2022-10-12T09:34:18.200Z,12.02
2022-10-12T09:36:47.519Z,8.27
2022-10-12T09:39:19.790Z,5.90
2022-10-12T09:41:50.100Z,8.40
2022-10-12T09:44:27.003Z,7.30
2022-10-12T09:46:57.481Z,4.75
2022-10-12T09:49:41.141Z,6.90
2022-10-12T09:52:09.537Z,7.28
2022-10-12T09:54:41.955Z,7.68
2022-10-12T09:57:10.452Z,8.55
2022-10-12T09:59:40.961Z,8.88
2022-10-12T10:02:17.451Z,5.13
2022-10-12T10:04:50.249Z,6.40
2022-10-12T10:07:30.919Z,6.65
2022-10-12T10:10:14.533Z,8.15
2022-10-12T10:12:49.832Z,7.35
2022-10-12T10:15:24.534Z,9.30
2022-10-12T10:17:55.069Z,6.90
2022-10-12T10:20:31.563Z,6.22
2022-10-12T10:23:01.204Z,7.63
2022-10-12T10:25:29.094Z,6.60
2022-10-12T10:28:13.458Z,7.78
2022-10-12T10:30:41.759Z,8.10
2022-10-12T10:33:18.955Z,10.38
2022-10-12T10:36:01.217Z,7.68
2022-10-12T10:38:31.730Z,8.98
2022-10-12T10:41:03.580Z,7.80
2022-10-12T10:43:32.960Z,9.32
2022-10-12T10:46:02.986Z,7.63
2022-10-12T10:48:35.663Z,7.45
2022-10-12T10:51:07.995Z,10.35
2022-10-12T10:53:46.097Z,8.00
2022-10-12T10:56:16.870Z,8.13
2022-10-12T10:58:46.633Z,6.85
2022-10-12T11:01:20.532Z,7.55
2022-10-12T11:03:56.125Z,9.82
2022-10-12T11:06:33.578Z,9.88
2022-10-12T11:09:06.503Z,9.40
2022-10-12T11:11:37.613Z,8.35
2022-10-12T11:14:13.444Z,10.68
2022-10-12T11:16:46.509Z,7.80
2022-10-12T11:19:31.449Z,8.88
2022-10-12T11:22:06.159Z,9.35
2022-10-12T11:24:41.598Z,7.75
2022-10-12T11:27:16.565Z,8.10
2022-10-12T11:29:46.618Z,7.97
2022-10-12T11:32:27.600Z,7.72
2022-10-12T11:34:59.262Z,10.52
2022-10-12T11:37:34.453Z,6.72
2022-10-12T11:40:04.124Z,12.48
2022-10-12T11:42:34.568Z,10.52
2022-10-12T11:45:07.221Z,6.80
2022-10-12T11:47:41.680Z,9.80
2022-10-12T11:50:25.292Z,10.73
2022-10-12T11:52:57.629Z,11.90
2022-10-12T11:55:36.359Z,7.87
2022-10-12T11:58:13.532Z,8.07
2022-10-12T12:00:54.227Z,12.80
2022-10-12T12:03:29.921Z,9.00
2022-10-12T12:06:18.020Z,10.55
2022-10-12T12:09:07.274Z,11.40
2022-10-12T12:11:36.145Z,11.13
2022-10-12T12:14:36.996Z,12.38
2022-10-12T12:17:16.723Z,9.18
2022-10-12T12:19:46.473Z,10.52
2022-10-12T12:22:28.625Z,8.68
2022-10-12T12:25:09.090Z,8.68
2022-10-12T12:27:44.857Z,10.90
2022-10-12T12:30:34.668Z,12.20
2022-10-12T12:33:05.669Z,9.30
2022-10-12T12:35:38.842Z,7.82
2022-10-12T12:38:27.610Z,9.52
2022-10-12T12:41:08.958Z,8.10
2022-10-12T12:43:58.770Z,16.52
2022-10-12T12:46:58.190Z,11.40
2022-10-12T12:49:29.231Z,14.07
2022-10-12T12:51:59.770Z,11.48
2022-10-12T12:54:28.704Z,11.90
2022-10-12T12:57:12.267Z,12.10
2022-10-12T13:00:15.617Z,11.57
2022-10-12T13:03:31.042Z,11.33
2022-10-12T13:06:42.598Z,13.00
2022-10-12T13:09:44.897Z,8.85
2022-10-12T13:12:25.611Z,11.55
2022-10-12T13:15:18.407Z,11.90
2022-10-12T13:17:58.018Z,13.02
2022-10-12T13:20:28.773Z,15.52
2022-10-12T13:22:58.082Z,18.42
2022-10-12T13:25:31.310Z,21.08
2022-10-12T13:28:03.581Z,13.50
2022-10-12T13:30:37.083Z,18.83
2022-10-12T13:33:14.325Z,19.05
2022-10-12T13:35:46.983Z,13.70
2022-10-12T13:38:22.491Z,15.02
2022-10-12T13:40:54.377Z,19.70
2022-10-12T13:43:30.107Z,14.82
2022-10-12T13:45:58.207Z,17.42
2022-10-12T13:48:53.740Z,19.80
2022-10-12T13:51:24.855Z,15.27
2022-10-12T13:53:53.012Z,15.57
2022-10-12T13:56:24.209Z,19.48
2022-10-12T13:58:57.807Z,11.48
2022-10-12T14:01:27.009Z,14.15
2022-10-12T14:04:04.487Z,14.35
2022-10-12T14:06:33.979Z,13.18
2022-10-12T14:09:10.191Z,12.48
2022-10-12T14:11:39.227Z,11.23
2022-10-12T14:14:19.673Z,13.25
2022-10-12T14:16:47.812Z,11.65
2022-10-12T14:19:20.386Z,10.07
2022-10-12T14:21:50.028Z,17.30
2022-10-12T14:24:20.379Z,11.68
2022-10-12T14:26:55.747Z,12.48
2022-10-12T14:29:33.005Z,12.52
2022-10-12T14:32:02.535Z,10.48
2022-10-12T14:34:40.929Z,10.65
2022-10-12T14:37:30.207Z,13.07
2022-10-12T14:40:02.590Z,15.38
2022-10-12T14:42:34.946Z,9.93
2022-10-12T14:45:24.053Z,12.85
2022-10-12T14:47:52.314Z,13.70
2022-10-12T14:50:22.026Z,15.77
2022-10-12T14:52:52.429Z,11.40
2022-10-12T14:55:22.248Z,13.05
2022-10-12T14:57:51.065Z,17.80
2022-10-12T15:00:22.559Z,13.95
2022-10-12T15:02:51.328Z,12.50
2022-10-12T15:05:21.613Z,16.52
2022-10-12T15:07:50.773Z,12.57
2022-10-12T15:10:21.279Z,16.13
2022-10-12T15:12:49.932Z,10.32
2022-10-12T15:15:33.423Z,13.02
2022-10-12T15:18:01.637Z,12.30
2022-10-12T15:20:30.934Z,16.20
2022-10-12T15:22:59.019Z,14.93
2022-10-12T15:25:33.605Z,15.82
2022-10-12T15:28:01.456Z,13.52
2022-10-12T15:30:30.975Z,13.32
2022-10-12T15:32:58.814Z,13.20
2022-10-12T15:35:28.284Z,14.52
2022-10-12T15:37:56.763Z,17.80
2022-10-12T15:40:25.398Z,13.30
2022-10-12T15:42:53.431Z,13.68
2022-10-12T15:45:24.436Z,15.45
2022-10-12T15:47:54.732Z,16.95
2022-10-12T15:50:25.228Z,19.30
2022-10-12T15:52:54.347Z,15.52
2022-10-12T15:55:23.756Z,14.18
2022-10-12T15:57:52.599Z,18.95
2022-10-12T16:00:22.935Z,13.32
2022-10-12T16:02:50.819Z,15.27
2022-10-12T16:05:25.946Z,16.75
2022-10-12T16:07:54.527Z,10.93
2022-10-12T16:10:25.217Z,21.77
2022-10-12T16:12:54.866Z,14.57
2022-10-12T16:15:26.044Z,12.30
2022-10-12T16:17:54.372Z,13.52
2022-10-12T16:20:24.177Z,12.52
2022-10-12T16:22:52.388Z,12.20
2022-10-12T16:25:24.021Z,13.05
2022-10-12T16:27:52.664Z,15.10
2022-10-12T16:30:20.895Z,13.98
2022-10-12T16:32:49.260Z,15.93
2022-10-12T16:35:17.247Z,16.10
2022-10-12T16:37:46.307Z,15.50
2022-10-12T16:40:15.240Z,22.90
2022-10-12T16:42:43.237Z,16.17
2022-10-12T16:45:12.058Z,16.13
2022-10-12T16:47:42.805Z,17.17
2022-10-12T16:50:11.461Z,19.13
2022-10-12T16:52:39.643Z,18.77
2022-10-12T16:55:10.465Z,21.30
2022-10-12T16:57:38.918Z,21.60
2022-10-12T17:00:09.803Z,22.85
2022-10-12T17:02:38.441Z,26.77
2022-10-12T17:05:07.087Z,18.35
2022-10-12T17:07:35.041Z,20.52
2022-10-12T17:10:03.027Z,22.15
2022-10-12T17:12:32.385Z,18.63
2022-10-12T17:15:00.515Z,20.88
2022-10-12T17:17:28.371Z,17.80
2022-10-12T17:19:56.865Z,18.58
2022-10-12T17:22:24.880Z,23.70
2022-10-12T17:24:53.221Z,16.13
2022-10-12T17:27:21.592Z,19.35
2022-10-12T17:29:51.404Z,19.65
2022-10-12T17:32:20.094Z,19.45
2022-10-12T17:34:48.019Z,24.88
2022-10-12T17:37:19.829Z,26.95
2022-10-12T17:39:48.391Z,18.98
2022-10-12T17:42:16.663Z,21.52
2022-10-12T17:44:44.716Z,24.88
2022-10-12T17:47:14.080Z,19.23
2022-10-12T17:49:42.292Z,19.63
2022-10-12T17:52:10.653Z,19.80
2022-10-12T17:54:40.289Z,20.77
2022-10-12T17:57:09.345Z,19.55
2022-10-12T17:59:37.786Z,16.42
2022-10-12T18:02:09.373Z,15.23
2022-10-12T18:04:40.171Z,14.30
2022-10-12T18:07:07.959Z,19.83
2022-10-12T18:09:35.810Z,17.88
2022-10-12T18:12:03.704Z,17.63
2022-10-12T18:14:31.520Z,18.42
2022-10-12T18:16:59.812Z,18.55
2022-10-12T18:19:27.631Z,15.35
2022-10-12T18:21:57.114Z,17.05
2022-10-12T18:24:27.481Z,20.30
2022-10-12T18:26:55.555Z,17.30
2022-10-12T18:29:24.116Z,22.52
2022-10-12T18:31:53.217Z,21.75
2022-10-12T18:34:20.941Z,18.75
2022-10-12T18:36:49.775Z,15.45
2022-10-12T18:39:18.880Z,17.73
2022-10-12T18:41:51.510Z,15.63
2022-10-12T18:44:21.032Z,18.80
2022-10-12T18:46:49.729Z,22.70
2022-10-12T18:49:17.682Z,19.45
2022-10-12T18:51:51.386Z,23.58
2022-10-12T18:54:20.745Z,21.63
2022-10-12T18:56:48.573Z,22.58
2022-10-12T18:59:20.448Z,19.60
2022-10-12T19:01:48.399Z,21.50
2022-10-12T19:04:19.449Z,21.55
2022-10-12T19:06:47.275Z,23.88
2022-10-12T19:09:15.294Z,23.65
2022-10-12T19:11:44.587Z,26.38
2022-10-12T19:14:14.667Z,23.02
2022-10-12T19:16:43.205Z,25.70
2022-10-12T19:19:19.644Z,25.80
2022-10-12T19:21:49.032Z,28.50
2022-10-12T19:24:17.599Z,23.60
2022-10-12T19:26:48.294Z,24.08
2022-10-12T19:29:16.513Z,29.30
2022-10-12T19:31:46.494Z,23.80
2022-10-12T19:34:16.854Z,30.23
2022-10-12T19:36:46.173Z,26.10
2022-10-12T19:39:16.155Z,24.85
2022-10-12T19:41:45.122Z,21.75
2022-10-12T19:44:14.934Z,24.23
2022-10-12T19:46:47.463Z,30.20
2022-10-12T19:49:18.144Z,20.67
2022-10-12T19:51:46.454Z,28.75
2022-10-12T19:54:16.354Z,31.50
2022-10-12T19:56:44.455Z,23.85
2022-10-12T19:59:13.768Z,27.27
2022-10-12T20:01:41.834Z,35.15
2022-10-12T20:04:11.903Z,26.23
2022-10-12T20:06:40.600Z,25.00
2022-10-12T20:09:10.561Z,25.50
2022-10-12T20:11:38.847Z,26.92
2022-10-12T20:14:08.056Z,33.90
2022-10-12T20:16:37.759Z,25.52
2022-10-12T20:19:08.892Z,25.55
2022-10-12T20:21:37.409Z,19.42
2022-10-12T20:24:08.849Z,27.13
2022-10-12T20:26:37.349Z,30.58
2022-10-12T20:29:05.248Z,29.15
2022-10-12T20:31:33.629Z,29.10
2022-10-12T20:34:02.798Z,25.00
2022-10-12T20:36:31.931Z,28.60
2022-10-12T20:39:00.692Z,26.17
2022-10-12T20:41:29.582Z,29.80
2022-10-12T20:43:58.241Z,26.75
2022-10-12T20:46:26.779Z,26.52
2022-10-12T20:48:59.226Z,24.13
2022-10-12T20:51:31.302Z,24.90
2022-10-12T20:54:00.867Z,23.10
2022-10-12T20:56:29.019Z,23.33
2022-10-12T20:58:57.051Z,22.30
2022-10-12T21:01:26.585Z,20.80
2022-10-12T21:03:54.994Z,20.98
2022-10-12T21:06:23.612Z,26.00
2022-10-12T21:08:55.128Z,30.05
2022-10-12T21:11:25.837Z,28.60
2022-10-12T21:13:54.320Z,24.95
2022-10-12T21:16:22.500Z,28.10
2022-10-12T21:18:55.092Z,29.25
2022-10-12T21:21:24.043Z,24.77
2022-10-12T21:23:55.879Z,26.55
2022-10-12T21:26:25.608Z,26.98
2022-10-12T21:28:53.669Z,24.60
2022-10-12T21:31:22.659Z,25.38
2022-10-12T21:33:50.601Z,31.92
2022-10-12T21:36:21.508Z,23.55
2022-10-12T21:38:50.601Z,25.85
2022-10-12T21:41:22.037Z,25.48
2022-10-12T21:43:52.052Z,24.35
2022-10-12T21:46:24.138Z,24.55
2022-10-12T21:48:53.760Z,24.40
2022-10-12T21:51:24.082Z,24.40
2022-10-12T21:53:54.334Z,25.17
2022-10-12T21:56:27.826Z,30.23
2022-10-12T22:01:28.944Z,18.85
2022-10-12T22:04:00.361Z,20.27
2022-10-12T22:06:32.009Z,26.50
2022-10-12T22:09:05.859Z,27.90
2022-10-12T22:11:40.305Z,23.38
2022-10-12T22:14:16.381Z,27.20
2022-10-12T22:16:45.472Z,25.08
2022-10-12T22:19:18.693Z,27.40
2022-10-12T22:21:48.232Z,25.38
2022-10-12T22:24:16.871Z,24.98
2022-10-12T22:26:47.858Z,29.25
2022-10-12T22:29:16.801Z,27.65
2022-10-12T22:31:46.531Z,31.55
2022-10-12T22:34:19.806Z,31.70
2022-10-12T22:36:48.587Z,27.77
2022-10-12T22:39:26.330Z,26.88
2022-10-12T22:41:58.298Z,26.33
2022-10-12T22:44:26.072Z,21.90
2022-10-12T22:46:55.069Z,26.40
2022-10-12T22:49:22.835Z,30.65
2022-10-12T22:51:50.840Z,23.58
2022-10-12T22:54:18.559Z,23.55
2022-10-12T22:56:46.471Z,27.48
2022-10-12T22:59:16.843Z,34.00
2022-10-12T23:01:45.701Z,32.00
2022-10-12T23:04:13.551Z,31.52
2022-10-12T23:06:41.358Z,35.33
2022-10-12T23:09:09.444Z,28.85
2022-10-12T23:11:37.776Z,32.45
2022-10-12T23:14:05.655Z,34.85
2022-10-12T23:16:35.413Z,28.17
2022-10-12T23:19:06.142Z,26.73
2022-10-12T23:21:35.786Z,32.08
2022-10-12T23:24:05.886Z,37.83
2022-10-12T23:26:35.056Z,30.98
2022-10-12T23:29:02.977Z,28.35
2022-10-12T23:31:31.782Z,28.58
2022-10-12T23:34:04.584Z,29.55
2022-10-12T23:36:35.503Z,36.05
2022-10-12T23:39:05.008Z,34.45
2022-10-12T23:41:32.883Z,31.70
2022-10-12T23:44:00.739Z,34.33
2022-10-12T23:46:28.601Z,36.05
2022-10-12T23:48:58.533Z,35.72
2022-10-12T23:51:27.906Z,43.55
2022-10-12T23:53:55.832Z,48.33
2022-10-12T23:56:23.729Z,38.88
2022-10-12T23:58:53.817Z,37.53
